sensor_id;sensor_type;location;lat;lon;timestamp;pressure;altitude;pressure_sealevel;temperature;humidity
20077;BME280;12348;42.710;23.378;2023-07-31T00:00:04;94767.81;;;21.56;100.00
20077;BME280;12348;42.710;23.378;2023-07-31T00:02:31;94774.13;;;21.60;100.00
20077;BME280;12348;42.710;23.378;2023-07-31T00:04:58;94783.72;;;21.46;100.00
20077;BME280;12348;42.710;23.378;2023-07-31T00:07:24;94787.56;;;21.42;100.00
20077;BME280;12348;42.710;23.378;2023-07-31T00:09:51;94785.19;;;21.40;100.00
20077;BME280;12348;42.710;23.378;2023-07-31T00:12:18;94784.75;;;21.38;100.00
20077;BME280;12348;42.710;23.378;2023-07-31T00:14:47;94786.56;;;21.30;100.00
20077;BME280;12348;42.710;23.378;2023-07-31T00:17:17;94777.44;;;21.23;100.00
20077;BME280;12348;42.710;23.378;2023-07-31T00:19:45;94777.06;;;21.24;100.00
20077;BME280;12348;42.710;23.378;2023-07-31T00:22:14;94773.59;;;21.27;100.00
20077;BME280;12348;42.710;23.378;2023-07-31T00:24:41;94771.44;;;21.14;100.00
20077;BME280;12348;42.710;23.378;2023-07-31T00:27:08;94770.28;;;21.15;100.00
20077;BME280;12348;42.710;23.378;2023-07-31T00:29:34;94770.31;;;21.18;100.00
20077;BME280;12348;42.710;23.378;2023-07-31T00:32:03;94765.59;;;21.38;100.00
20077;BME280;12348;42.710;23.378;2023-07-31T00:34:30;94754.44;;;21.27;100.00
20077;BME280;12348;42.710;23.378;2023-07-31T00:36:57;94743.06;;;21.25;100.00
20077;BME280;12348;42.710;23.378;2023-07-31T00:39:23;94740.72;;;21.27;100.00
20077;BME280;12348;42.710;23.378;2023-07-31T00:41:50;94727.31;;;21.19;100.00
20077;BME280;12348;42.710;23.378;2023-07-31T00:44:17;94734.56;;;21.08;100.00
20077;BME280;12348;42.710;23.378;2023-07-31T00:46:44;94736.38;;;21.00;100.00
20077;BME280;12348;42.710;23.378;2023-07-31T00:49:12;94743.31;;;20.94;100.00
20077;BME280;12348;42.710;23.378;2023-07-31T00:51:39;94745.38;;;20.77;100.00
20077;BME280;12348;42.710;23.378;2023-07-31T00:54:06;94747.81;;;20.82;100.00
20077;BME280;12348;42.710;23.378;2023-07-31T00:56:33;94740.03;;;20.85;100.00
20077;BME280;12348;42.710;23.378;2023-07-31T00:59:00;94740.63;;;20.74;100.00
20077;BME280;12348;42.710;23.378;2023-07-31T01:01:27;94735.09;;;20.71;100.00
20077;BME280;12348;42.710;23.378;2023-07-31T01:03:55;94735.22;;;20.78;100.00
20077;BME280;12348;42.710;23.378;2023-07-31T01:06:29;94723.00;;;20.72;100.00
20077;BME280;12348;42.710;23.378;2023-07-31T01:09:02;94731.06;;;20.65;100.00
20077;BME280;12348;42.710;23.378;2023-07-31T01:11:31;94736.00;;;20.55;100.00
20077;BME280;12348;42.710;23.378;2023-07-31T01:13:59;94734.97;;;20.64;100.00
20077;BME280;12348;42.710;23.378;2023-07-31T01:16:26;94729.44;;;20.60;100.00
20077;BME280;12348;42.710;23.378;2023-07-31T01:18:53;94731.25;;;20.52;100.00
20077;BME280;12348;42.710;23.378;2023-07-31T01:21:35;94722.47;;;20.43;100.00
20077;BME280;12348;42.710;23.378;2023-07-31T01:24:35;94718.81;;;20.36;100.00
20077;BME280;12348;42.710;23.378;2023-07-31T01:27:08;94717.97;;;20.35;100.00
20077;BME280;12348;42.710;23.378;2023-07-31T01:29:40;94712.28;;;20.21;100.00
20077;BME280;12348;42.710;23.378;2023-07-31T01:32:10;94718.38;;;20.14;100.00
20077;BME280;12348;42.710;23.378;2023-07-31T01:34:39;94716.28;;;20.07;100.00
20077;BME280;12348;42.710;23.378;2023-07-31T01:37:06;94714.50;;;20.15;100.00
20077;BME280;12348;42.710;23.378;2023-07-31T01:39:32;94722.63;;;20.12;100.00
20077;BME280;12348;42.710;23.378;2023-07-31T01:41:59;94723.13;;;19.98;100.00
20077;BME280;12348;42.710;23.378;2023-07-31T01:44:27;94716.28;;;19.88;100.00
20077;BME280;12348;42.710;23.378;2023-07-31T01:46:54;94720.19;;;19.87;100.00
20077;BME280;12348;42.710;23.378;2023-07-31T01:49:21;94721.03;;;20.10;100.00
20077;BME280;12348;42.710;23.378;2023-07-31T01:51:48;94725.84;;;19.98;100.00
20077;BME280;12348;42.710;23.378;2023-07-31T01:54:14;94724.78;;;19.83;100.00
20077;BME280;12348;42.710;23.378;2023-07-31T01:56:41;94727.06;;;19.81;100.00
20077;BME280;12348;42.710;23.378;2023-07-31T01:59:08;94735.63;;;19.79;100.00
20077;BME280;12348;42.710;23.378;2023-07-31T02:01:36;94732.75;;;19.72;100.00
20077;BME280;12348;42.710;23.378;2023-07-31T02:04:03;94733.72;;;19.64;100.00
20077;BME280;12348;42.710;23.378;2023-07-31T02:06:30;94734.53;;;19.65;100.00
20077;BME280;12348;42.710;23.378;2023-07-31T02:08:57;94732.03;;;19.59;100.00
20077;BME280;12348;42.710;23.378;2023-07-31T02:11:23;94743.66;;;19.56;100.00
20077;BME280;12348;42.710;23.378;2023-07-31T02:13:50;94737.34;;;19.52;100.00
20077;BME280;12348;42.710;23.378;2023-07-31T02:16:17;94748.25;;;19.52;100.00
20077;BME280;12348;42.710;23.378;2023-07-31T02:18:45;94744.81;;;19.55;100.00
20077;BME280;12348;42.710;23.378;2023-07-31T02:21:14;94745.19;;;19.54;100.00
20077;BME280;12348;42.710;23.378;2023-07-31T02:23:41;94746.44;;;19.41;100.00
20077;BME280;12348;42.710;23.378;2023-07-31T02:26:08;94740.91;;;19.37;100.00
20077;BME280;12348;42.710;23.378;2023-07-31T02:28:34;94741.53;;;19.30;100.00
20077;BME280;12348;42.710;23.378;2023-07-31T02:31:01;94743.91;;;19.32;100.00
20077;BME280;12348;42.710;23.378;2023-07-31T02:33:28;94741.53;;;19.30;100.00
20077;BME280;12348;42.710;23.378;2023-07-31T02:35:56;94746.34;;;19.37;100.00
20077;BME280;12348;42.710;23.378;2023-07-31T02:38:22;94739.59;;;19.31;100.00
20077;BME280;12348;42.710;23.378;2023-07-31T02:40:50;94745.56;;;19.36;100.00
20077;BME280;12348;42.710;23.378;2023-07-31T02:43:16;94745.19;;;19.54;100.00
20077;BME280;12348;42.710;23.378;2023-07-31T02:45:43;94742.88;;;19.56;100.00
20077;BME280;12348;42.710;23.378;2023-07-31T02:48:10;94742.19;;;19.59;100.00
20077;BME280;12348;42.710;23.378;2023-07-31T02:50:36;94752.44;;;19.62;100.00
20077;BME280;12348;42.710;23.378;2023-07-31T02:53:04;94757.25;;;19.69;100.00
20077;BME280;12348;42.710;23.378;2023-07-31T02:55:31;94751.88;;;19.72;100.00
20077;BME280;12348;42.710;23.378;2023-07-31T02:57:58;94758.84;;;19.70;100.00
20077;BME280;12348;42.710;23.378;2023-07-31T03:00:25;94765.16;;;19.74;100.00
20077;BME280;12348;42.710;23.378;2023-07-31T03:02:51;94766.19;;;19.85;100.00
20077;BME280;12348;42.710;23.378;2023-07-31T03:05:18;94762.66;;;19.84;100.00
20077;BME280;12348;42.710;23.378;2023-07-31T03:07:45;94765.91;;;19.90;100.00
20077;BME280;12348;42.710;23.378;2023-07-31T03:10:13;94758.00;;;20.04;100.00
20077;BME280;12348;42.710;23.378;2023-07-31T03:12:40;94764.84;;;20.14;100.00
20077;BME280;12348;42.710;23.378;2023-07-31T03:15:08;94762.91;;;20.15;100.00
20077;BME280;12348;42.710;23.378;2023-07-31T03:17:34;94767.81;;;20.25;100.00
20077;BME280;12348;42.710;23.378;2023-07-31T03:20:01;94771.09;;;20.34;100.00
20077;BME280;12348;42.710;23.378;2023-07-31T03:22:28;94774.06;;;20.45;100.00
20077;BME280;12348;42.710;23.378;2023-07-31T03:24:55;94766.94;;;20.40;100.00
20077;BME280;12348;42.710;23.378;2023-07-31T03:27:23;94767.66;;;20.37;100.00
20077;BME280;12348;42.710;23.378;2023-07-31T03:29:49;94766.88;;;20.37;100.00
20077;BME280;12348;42.710;23.378;2023-07-31T03:32:17;94770.16;;;20.46;100.00
20077;BME280;12348;42.710;23.378;2023-07-31T03:34:43;94768.81;;;20.36;100.00
20077;BME280;12348;42.710;23.378;2023-07-31T03:37:10;94769.16;;;20.34;100.00
20077;BME280;12348;42.710;23.378;2023-07-31T03:39:37;94778.44;;;20.30;100.00
20077;BME280;12348;42.710;23.378;2023-07-31T03:42:04;94769.16;;;20.34;100.00
20077;BME280;12348;42.710;23.378;2023-07-31T03:44:32;94775.63;;;20.46;100.00
20077;BME280;12348;42.710;23.378;2023-07-31T03:46:59;94776.78;;;20.45;100.00
20077;BME280;12348;42.710;23.378;2023-07-31T03:49:26;94784.72;;;20.50;100.00
20077;BME280;12348;42.710;23.378;2023-07-31T03:51:53;94781.06;;;20.62;100.00
20077;BME280;12348;42.710;23.378;2023-07-31T03:54:20;94783.88;;;20.65;100.00
20077;BME280;12348;42.710;23.378;2023-07-31T03:56:47;94792.25;;;20.76;100.00
20077;BME280;12348;42.710;23.378;2023-07-31T03:59:13;94789.72;;;20.87;100.00
20077;BME280;12348;42.710;23.378;2023-07-31T04:01:41;94782.72;;;20.89;100.00
20077;BME280;12348;42.710;23.378;2023-07-31T04:04:08;94796.09;;;20.94;100.00
20077;BME280;12348;42.710;23.378;2023-07-31T04:06:35;94790.16;;;21.12;100.00
20077;BME280;12348;42.710;23.378;2023-07-31T04:09:02;94801.44;;;21.06;100.00
20077;BME280;12348;42.710;23.378;2023-07-31T04:11:28;94798.75;;;21.10;100.00
20077;BME280;12348;42.710;23.378;2023-07-31T04:13:55;94794.19;;;21.18;100.00
20077;BME280;12348;42.710;23.378;2023-07-31T04:16:22;94801.56;;;21.14;100.00
20077;BME280;12348;42.710;23.378;2023-07-31T04:18:54;94805.63;;;21.23;100.00
20077;BME280;12348;42.710;23.378;2023-07-31T04:21:21;94804.72;;;21.39;100.00
20077;BME280;12348;42.710;23.378;2023-07-31T04:23:47;94805.88;;;21.38;100.00
20077;BME280;12348;42.710;23.378;2023-07-31T04:26:14;94803.56;;;21.40;100.00
20077;BME280;12348;42.710;23.378;2023-07-31T04:28:41;94804.44;;;21.44;100.00
20077;BME280;12348;42.710;23.378;2023-07-31T04:31:14;94803.06;;;21.57;100.00
20077;BME280;12348;42.710;23.378;2023-07-31T04:33:41;94804.94;;;21.53;100.00
20077;BME280;12348;42.710;23.378;2023-07-31T04:36:09;94800.59;;;21.48;100.00
20077;BME280;12348;42.710;23.378;2023-07-31T04:38:36;94802.78;;;21.39;100.00
20077;BME280;12348;42.710;23.378;2023-07-31T04:41:03;94813.19;;;21.53;100.00
20077;BME280;12348;42.710;23.378;2023-07-31T04:43:30;94807.69;;;21.53;100.00
20077;BME280;12348;42.710;23.378;2023-07-31T04:45:57;94806.53;;;21.31;100.00
20077;BME280;12348;42.710;23.378;2023-07-31T04:48:24;94812.53;;;21.37;100.00
20077;BME280;12348;42.710;23.378;2023-07-31T04:50:51;94798.03;;;21.36;100.00
20077;BME280;12348;42.710;23.378;2023-07-31T04:53:19;94804.31;;;21.37;100.00
20077;BME280;12348;42.710;23.378;2023-07-31T04:55:45;94809.72;;;21.33;100.00
20077;BME280;12348;42.710;23.378;2023-07-31T04:58:12;94804.06;;;21.45;100.00
20077;BME280;12348;42.710;23.378;2023-07-31T05:00:39;94806.34;;;21.66;100.00
20077;BME280;12348;42.710;23.378;2023-07-31T05:03:06;94798.97;;;21.70;100.00
20077;BME280;12348;42.710;23.378;2023-07-31T05:05:33;94800.25;;;21.53;100.00
20077;BME280;12348;42.710;23.378;2023-07-31T05:07:59;94801.94;;;21.62;100.00
20077;BME280;12348;42.710;23.378;2023-07-31T05:10:28;94805.66;;;21.73;100.00
20077;BME280;12348;42.710;23.378;2023-07-31T05:12:54;94800.81;;;21.63;100.00
20077;BME280;12348;42.710;23.378;2023-07-31T05:15:21;94805.50;;;22.15;100.00
20077;BME280;12348;42.710;23.378;2023-07-31T05:17:48;94800.00;;;23.61;100.00
20077;BME280;12348;42.710;23.378;2023-07-31T05:20:15;94809.88;;;25.44;100.00
20077;BME280;12348;42.710;23.378;2023-07-31T05:22:42;94808.22;;;27.34;99.57
20077;BME280;12348;42.710;23.378;2023-07-31T05:25:09;94798.03;;;27.20;94.38
20077;BME280;12348;42.710;23.378;2023-07-31T05:27:37;94800.72;;;28.62;83.88
20077;BME280;12348;42.710;23.378;2023-07-31T05:30:04;94794.53;;;30.13;75.49
20077;BME280;12348;42.710;23.378;2023-07-31T05:32:31;94801.88;;;29.53;76.60
20077;BME280;12348;42.710;23.378;2023-07-31T05:34:58;94799.38;;;29.86;74.41
20077;BME280;12348;42.710;23.378;2023-07-31T05:37:25;94801.94;;;30.00;74.55
20077;BME280;12348;42.710;23.378;2023-07-31T05:39:52;94796.13;;;29.67;74.62
20077;BME280;12348;42.710;23.378;2023-07-31T05:42:19;94804.69;;;30.24;72.20
20077;BME280;12348;42.710;23.378;2023-07-31T05:44:48;94793.44;;;28.75;77.34
20077;BME280;12348;42.710;23.378;2023-07-31T05:47:14;94813.66;;;29.07;78.25
20077;BME280;12348;42.710;23.378;2023-07-31T05:49:41;94800.56;;;28.01;81.17
20077;BME280;12348;42.710;23.378;2023-07-31T05:52:08;94793.75;;;27.01;85.92
20077;BME280;12348;42.710;23.378;2023-07-31T05:54:34;94797.22;;;27.23;85.21
20077;BME280;12348;42.710;23.378;2023-07-31T05:57:01;94794.66;;;27.47;85.44
20077;BME280;12348;42.710;23.378;2023-07-31T05:59:28;94803.41;;;30.28;71.51
20077;BME280;12348;42.710;23.378;2023-07-31T06:01:59;94803.13;;;32.07;64.65
20077;BME280;12348;42.710;23.378;2023-07-31T06:04:26;94808.09;;;31.67;64.62
20077;BME280;12348;42.710;23.378;2023-07-31T06:06:53;94812.16;;;31.46;65.44
20077;BME280;12348;42.710;23.378;2023-07-31T06:09:20;94812.50;;;30.72;65.39
20077;BME280;12348;42.710;23.378;2023-07-31T06:11:47;94815.94;;;30.16;68.50
20077;BME280;12348;42.710;23.378;2023-07-31T06:14:14;94819.13;;;29.91;70.08
20077;BME280;12348;42.710;23.378;2023-07-31T06:16:41;94817.09;;;31.91;63.85
20077;BME280;12348;42.710;23.378;2023-07-31T06:19:10;94809.66;;;30.56;65.55
20077;BME280;12348;42.710;23.378;2023-07-31T06:21:38;94813.13;;;29.15;70.65
20077;BME280;12348;42.710;23.378;2023-07-31T06:24:07;94805.53;;;27.75;76.77
20077;BME280;12348;42.710;23.378;2023-07-31T06:26:34;94796.88;;;27.14;79.83
20077;BME280;12348;42.710;23.378;2023-07-31T06:29:01;94807.72;;;29.86;70.34
20077;BME280;12348;42.710;23.378;2023-07-31T06:31:28;94813.28;;;31.12;64.56
20077;BME280;12348;42.710;23.378;2023-07-31T06:33:55;94812.81;;;29.10;70.70
20077;BME280;12348;42.710;23.378;2023-07-31T06:36:23;94803.78;;;27.96;74.86
20077;BME280;12348;42.710;23.378;2023-07-31T06:38:50;94804.31;;;28.21;75.57
20077;BME280;12348;42.710;23.378;2023-07-31T06:41:16;94802.50;;;28.80;72.43
20077;BME280;12348;42.710;23.378;2023-07-31T06:43:43;94802.75;;;30.84;66.18
20077;BME280;12348;42.710;23.378;2023-07-31T06:46:10;94797.88;;;31.44;61.95
20077;BME280;12348;42.710;23.378;2023-07-31T06:48:37;94807.47;;;30.00;65.88
20077;BME280;12348;42.710;23.378;2023-07-31T06:51:03;94808.06;;;29.64;68.27
20077;BME280;12348;42.710;23.378;2023-07-31T06:53:32;94807.72;;;31.12;64.12
20077;BME280;12348;42.710;23.378;2023-07-31T06:55:58;94810.03;;;32.77;59.11
20077;BME280;12348;42.710;23.378;2023-07-31T06:58:25;94812.94;;;31.63;60.27
20077;BME280;12348;42.710;23.378;2023-07-31T07:00:52;94816.28;;;29.44;66.24
20077;BME280;12348;42.710;23.378;2023-07-31T07:03:19;94809.94;;;29.94;65.12
20077;BME280;12348;42.710;23.378;2023-07-31T07:05:46;94807.91;;;30.22;64.58
20077;BME280;12348;42.710;23.378;2023-07-31T07:08:13;94804.88;;;31.16;61.99
20077;BME280;12348;42.710;23.378;2023-07-31T07:10:41;94805.91;;;32.40;58.34
20077;BME280;12348;42.710;23.378;2023-07-31T07:13:08;94814.38;;;32.66;55.85
20077;BME280;12348;42.710;23.378;2023-07-31T07:15:35;94810.09;;;32.16;57.14
20077;BME280;12348;42.710;23.378;2023-07-31T07:18:02;94815.31;;;33.94;53.10
20077;BME280;12348;42.710;23.378;2023-07-31T07:20:29;94812.25;;;34.26;52.37
20077;BME280;12348;42.710;23.378;2023-07-31T07:22:55;94816.56;;;34.75;49.99
20077;BME280;12348;42.710;23.378;2023-07-31T07:25:22;94820.25;;;33.39;54.21
20077;BME280;12348;42.710;23.378;2023-07-31T07:27:50;94816.34;;;34.35;51.88
20077;BME280;12348;42.710;23.378;2023-07-31T07:30:17;94821.06;;;35.47;48.20
20077;BME280;12348;42.710;23.378;2023-07-31T07:32:45;94818.22;;;36.01;46.40
20077;BME280;12348;42.710;23.378;2023-07-31T07:35:11;94824.09;;;35.93;46.62
20077;BME280;12348;42.710;23.378;2023-07-31T07:37:38;94811.84;;;36.00;46.35
20077;BME280;12348;42.710;23.378;2023-07-31T07:40:07;94811.75;;;36.96;44.52
20077;BME280;12348;42.710;23.378;2023-07-31T07:42:34;94809.53;;;36.17;44.88
20077;BME280;12348;42.710;23.378;2023-07-31T07:45:02;94812.41;;;35.95;45.44
20077;BME280;12348;42.710;23.378;2023-07-31T07:47:29;94821.38;;;35.81;46.02
20077;BME280;12348;42.710;23.378;2023-07-31T07:49:56;94819.25;;;36.99;42.56
20077;BME280;12348;42.710;23.378;2023-07-31T07:52:22;94825.63;;;37.08;42.00
20077;BME280;12348;42.710;23.378;2023-07-31T07:54:49;94810.72;;;37.54;41.65
20077;BME280;12348;42.710;23.378;2023-07-31T07:57:16;94815.66;;;38.01;39.77
20077;BME280;12348;42.710;23.378;2023-07-31T07:59:43;94813.94;;;37.01;41.14
20077;BME280;12348;42.710;23.378;2023-07-31T08:02:11;94826.16;;;37.58;40.56
20077;BME280;12348;42.710;23.378;2023-07-31T08:04:37;94820.91;;;35.11;45.56
20077;BME280;12348;42.710;23.378;2023-07-31T08:07:04;94826.41;;;35.02;45.51
20077;BME280;12348;42.710;23.378;2023-07-31T08:09:31;94818.94;;;36.97;41.71
20077;BME280;12348;42.710;23.378;2023-07-31T08:11:59;94822.91;;;35.73;44.24
20077;BME280;12348;42.710;23.378;2023-07-31T08:14:28;94822.19;;;35.90;43.03
20077;BME280;12348;42.710;23.378;2023-07-31T08:16:55;94813.91;;;36.46;42.42
20077;BME280;12348;42.710;23.378;2023-07-31T08:19:23;94821.41;;;36.67;41.47
20077;BME280;12348;42.710;23.378;2023-07-31T08:21:50;94820.19;;;36.77;41.83
20077;BME280;12348;42.710;23.378;2023-07-31T08:24:17;94818.59;;;37.04;40.13
20077;BME280;12348;42.710;23.378;2023-07-31T08:26:43;94817.28;;;35.63;43.86
20077;BME280;12348;42.710;23.378;2023-07-31T08:29:10;94820.53;;;35.62;44.04
20077;BME280;12348;42.710;23.378;2023-07-31T08:31:37;94817.72;;;35.53;43.82
20077;BME280;12348;42.710;23.378;2023-07-31T08:34:03;94823.53;;;36.17;42.26
20077;BME280;12348;42.710;23.378;2023-07-31T08:36:32;94817.06;;;36.57;41.71
20077;BME280;12348;42.710;23.378;2023-07-31T08:39:00;94808.47;;;35.83;42.07
20077;BME280;12348;42.710;23.378;2023-07-31T08:41:27;94812.91;;;35.31;43.86
20077;BME280;12348;42.710;23.378;2023-07-31T08:43:55;94807.81;;;36.93;40.90
20077;BME280;12348;42.710;23.378;2023-07-31T08:46:22;94815.72;;;37.50;38.91
20077;BME280;12348;42.710;23.378;2023-07-31T08:48:50;94807.22;;;35.75;41.65
20077;BME280;12348;42.710;23.378;2023-07-31T08:51:19;94807.72;;;33.82;46.96
20077;BME280;12348;42.710;23.378;2023-07-31T08:53:47;94801.81;;;31.63;52.98
20077;BME280;12348;42.710;23.378;2023-07-31T08:56:15;94807.91;;;31.58;54.40
20077;BME280;12348;42.710;23.378;2023-07-31T08:58:43;94809.50;;;34.14;47.98
20077;BME280;12348;42.710;23.378;2023-07-31T09:01:10;94810.97;;;33.67;47.96
20077;BME280;12348;42.710;23.378;2023-07-31T09:03:39;94806.06;;;32.91;50.02
20077;BME280;12348;42.710;23.378;2023-07-31T09:06:06;94806.28;;;32.55;50.66
20077;BME280;12348;42.710;23.378;2023-07-31T09:08:33;94808.47;;;34.20;46.89
20077;BME280;12348;42.710;23.378;2023-07-31T09:11:02;94792.94;;;35.20;43.97
20077;BME280;12348;42.710;23.378;2023-07-31T09:13:31;94809.41;;;34.96;43.79
20077;BME280;12348;42.710;23.378;2023-07-31T09:15:58;94804.91;;;35.83;41.84
20077;BME280;12348;42.710;23.378;2023-07-31T09:18:25;94806.25;;;37.20;38.40
20077;BME280;12348;42.710;23.378;2023-07-31T09:21:02;94812.03;;;38.10;36.91
20077;BME280;12348;42.710;23.378;2023-07-31T09:23:40;94797.53;;;37.08;38.72
20077;BME280;12348;42.710;23.378;2023-07-31T09:26:09;94797.41;;;36.75;39.56
20077;BME280;12348;42.710;23.378;2023-07-31T09:28:36;94798.78;;;37.17;38.99
20077;BME280;12348;42.710;23.378;2023-07-31T09:31:03;94795.41;;;38.21;36.41
20077;BME280;12348;42.710;23.378;2023-07-31T09:33:30;94797.31;;;37.40;37.67
20077;BME280;12348;42.710;23.378;2023-07-31T09:35:58;94789.09;;;34.61;43.56
20077;BME280;12348;42.710;23.378;2023-07-31T09:38:26;94777.81;;;32.89;48.71
20077;BME280;12348;42.710;23.378;2023-07-31T09:40:53;94782.16;;;33.32;48.42
20077;BME280;12348;42.710;23.378;2023-07-31T09:43:23;94779.63;;;32.83;48.91
20077;BME280;12348;42.710;23.378;2023-07-31T09:45:55;94783.00;;;32.62;49.93
20077;BME280;12348;42.710;23.378;2023-07-31T09:48:23;94791.06;;;33.01;48.77
20077;BME280;12348;42.710;23.378;2023-07-31T09:50:52;94775.03;;;32.89;49.03
20077;BME280;12348;42.710;23.378;2023-07-31T09:53:28;94779.63;;;31.76;52.59
20077;BME280;12348;42.710;23.378;2023-07-31T09:55:58;94780.94;;;31.38;53.35
20077;BME280;12348;42.710;23.378;2023-07-31T09:58:28;94769.78;;;31.02;54.66
20077;BME280;12348;42.710;23.378;2023-07-31T10:00:57;94768.53;;;30.47;55.90
20077;BME280;12348;42.710;23.378;2023-07-31T10:03:25;94772.56;;;29.52;60.22
20077;BME280;12348;42.710;23.378;2023-07-31T10:05:53;94768.97;;;30.46;56.94
20077;BME280;12348;42.710;23.378;2023-07-31T10:08:26;94771.13;;;29.91;56.65
20077;BME280;12348;42.710;23.378;2023-07-31T10:10:55;94780.56;;;29.97;57.22
20077;BME280;12348;42.710;23.378;2023-07-31T10:13:27;94773.28;;;31.59;52.98
20077;BME280;12348;42.710;23.378;2023-07-31T10:15:58;94762.13;;;32.53;49.58
20077;BME280;12348;42.710;23.378;2023-07-31T10:18:26;94768.19;;;32.65;49.11
20077;BME280;12348;42.710;23.378;2023-07-31T10:20:55;94767.06;;;34.28;44.77
20077;BME280;12348;42.710;23.378;2023-07-31T10:23:22;94762.75;;;33.54;45.71
20077;BME280;12348;42.710;23.378;2023-07-31T10:25:51;94761.03;;;32.64;48.37
20077;BME280;12348;42.710;23.378;2023-07-31T10:28:19;94759.13;;;32.61;47.81
20077;BME280;12348;42.710;23.378;2023-07-31T10:30:49;94766.75;;;32.73;47.56
20077;BME280;12348;42.710;23.378;2023-07-31T10:33:17;94765.53;;;31.50;50.40
20077;BME280;12348;42.710;23.378;2023-07-31T10:35:47;94762.94;;;31.59;51.08
20077;BME280;12348;42.710;23.378;2023-07-31T10:38:13;94759.44;;;31.03;52.22
20077;BME280;12348;42.710;23.378;2023-07-31T10:40:40;94752.63;;;30.28;54.04
20077;BME280;12348;42.710;23.378;2023-07-31T10:43:23;94752.31;;;32.32;48.71
20077;BME280;12348;42.710;23.378;2023-07-31T10:45:53;94752.34;;;33.54;45.47
20077;BME280;12348;42.710;23.378;2023-07-31T10:48:20;94750.66;;;33.44;44.72
20077;BME280;12348;42.710;23.378;2023-07-31T10:50:47;94747.50;;;33.42;45.35
20077;BME280;12348;42.710;23.378;2023-07-31T10:53:23;94754.66;;;33.05;45.63
20077;BME280;12348;42.710;23.378;2023-07-31T10:55:50;94750.31;;;32.33;47.99
20077;BME280;12348;42.710;23.378;2023-07-31T10:58:19;94745.44;;;31.59;49.69
20077;BME280;12348;42.710;23.378;2023-07-31T11:00:46;94738.75;;;31.40;50.62
20077;BME280;12348;42.710;23.378;2023-07-31T11:03:16;94736.25;;;33.20;46.85
20077;BME280;12348;42.710;23.378;2023-07-31T11:05:47;94737.53;;;33.79;44.77
20077;BME280;12348;42.710;23.378;2023-07-31T11:08:16;94732.34;;;33.30;45.73
20077;BME280;12348;42.710;23.378;2023-07-31T11:10:44;94729.66;;;33.14;44.34
20077;BME280;12348;42.710;23.378;2023-07-31T11:13:11;94729.00;;;33.48;43.47
20077;BME280;12348;42.710;23.378;2023-07-31T11:15:38;94729.53;;;33.05;44.95
20077;BME280;12348;42.710;23.378;2023-07-31T11:18:05;94729.94;;;32.78;46.36
20077;BME280;12348;42.710;23.378;2023-07-31T11:20:36;94722.72;;;33.44;43.80
20077;BME280;12348;42.710;23.378;2023-07-31T11:23:06;94722.41;;;33.29;43.69
20077;BME280;12348;42.710;23.378;2023-07-31T11:25:34;94720.06;;;33.53;43.61
20077;BME280;12348;42.710;23.378;2023-07-31T11:28:03;94725.84;;;33.08;44.07
20077;BME280;12348;42.710;23.378;2023-07-31T11:30:30;94731.06;;;32.80;44.61
20077;BME280;12348;42.710;23.378;2023-07-31T11:32:57;94720.97;;;31.67;46.83
20077;BME280;12348;42.710;23.378;2023-07-31T11:35:24;94711.59;;;31.44;47.04
20077;BME280;12348;42.710;23.378;2023-07-31T11:37:52;94721.19;;;31.07;47.87
20077;BME280;12348;42.710;23.378;2023-07-31T11:40:19;94714.06;;;30.70;48.95
20077;BME280;12348;42.710;23.378;2023-07-31T11:42:46;94711.38;;;30.46;50.80
20077;BME280;12348;42.710;23.378;2023-07-31T11:45:13;94711.03;;;31.00;50.32
20077;BME280;12348;42.710;23.378;2023-07-31T11:47:39;94712.44;;;31.74;48.92
20077;BME280;12348;42.710;23.378;2023-07-31T11:50:10;94709.81;;;31.99;48.69
20077;BME280;12348;42.710;23.378;2023-07-31T11:52:40;94705.50;;;31.66;49.19
20077;BME280;12348;42.710;23.378;2023-07-31T11:55:09;94696.22;;;31.56;49.25
20077;BME280;12348;42.710;23.378;2023-07-31T11:57:37;94712.91;;;31.56;49.00
20077;BME280;12348;42.710;23.378;2023-07-31T12:00:07;94705.75;;;31.22;50.38
20077;BME280;12348;42.710;23.378;2023-07-31T12:02:35;94693.97;;;30.82;50.92
20077;BME280;12348;42.710;23.378;2023-07-31T12:05:02;94708.03;;;30.75;50.46
20077;BME280;12348;42.710;23.378;2023-07-31T12:07:43;94705.19;;;31.31;49.88
20077;BME280;12348;42.710;23.378;2023-07-31T12:10:11;94705.47;;;31.17;50.35
20077;BME280;12348;42.710;23.378;2023-07-31T12:12:56;94703.44;;;31.53;47.88
20077;BME280;12348;42.710;23.378;2023-07-31T12:15:35;94685.63;;;31.96;48.07
20077;BME280;12348;42.710;23.378;2023-07-31T12:18:07;94681.69;;;31.32;49.03
20077;BME280;12348;42.710;23.378;2023-07-31T12:20:34;94679.56;;;31.20;50.83
20077;BME280;12348;42.710;23.378;2023-07-31T12:23:01;94683.41;;;31.58;49.87
20077;BME280;12348;42.710;23.378;2023-07-31T12:25:31;94684.09;;;31.62;49.72
20077;BME280;12348;42.710;23.378;2023-07-31T12:27:58;94675.25;;;31.35;51.31
20077;BME280;12348;42.710;23.378;2023-07-31T12:30:28;94689.00;;;31.42;50.73
20077;BME280;12348;42.710;23.378;2023-07-31T12:32:55;94684.28;;;31.23;50.98
20077;BME280;12348;42.710;23.378;2023-07-31T12:35:22;94682.63;;;31.09;50.84
20077;BME280;12348;42.710;23.378;2023-07-31T12:37:48;94672.16;;;31.29;49.67
20077;BME280;12348;42.710;23.378;2023-07-31T12:40:15;94678.78;;;30.66;50.78
20077;BME280;12348;42.710;23.378;2023-07-31T12:42:43;94674.44;;;31.02;50.70
20077;BME280;12348;42.710;23.378;2023-07-31T12:45:10;94666.59;;;31.29;49.92
20077;BME280;12348;42.710;23.378;2023-07-31T12:47:36;94661.97;;;30.74;51.72